createdAt,value
2019-01-21T00:00:32.726Z,23.65
2019-01-21T00:03:01.862Z,23.32
2019-01-21T00:05:30.260Z,24.60
2019-01-21T00:07:58.668Z,22.75
2019-01-21T00:10:27.329Z,24.82
2019-01-21T00:12:55.994Z,22.95
2019-01-21T00:15:24.804Z,25.25
2019-01-21T00:17:53.256Z,22.32
2019-01-21T00:20:21.678Z,23.90
2019-01-21T00:22:50.327Z,22.85
2019-01-21T00:25:19.013Z,24.72
2019-01-21T00:27:47.426Z,23.95
2019-01-21T00:30:16.189Z,24.75
2019-01-21T00:32:44.678Z,23.38
2019-01-21T00:35:13.476Z,26.40
2019-01-21T00:37:42.137Z,22.60
2019-01-21T00:40:17.933Z,22.05
2019-01-21T00:56:41.756Z,23.60
2019-01-21T00:59:10.146Z,23.35
2019-01-21T01:01:38.615Z,25.08
2019-01-21T01:04:07.871Z,23.95
2019-01-21T01:06:36.269Z,22.15
2019-01-21T01:09:06.870Z,21.45
2019-01-21T01:11:35.276Z,21.73
2019-01-21T01:14:04.132Z,22.45
2019-01-21T01:16:32.764Z,26.62
2019-01-21T01:19:01.327Z,23.07
2019-01-21T01:21:29.739Z,23.83
2019-01-21T01:23:58.365Z,23.50
2019-01-21T01:26:26.756Z,23.27
2019-01-21T01:28:55.344Z,26.70
2019-01-21T01:31:23.733Z,26.45
2019-01-21T01:33:52.367Z,23.38
2019-01-21T01:36:20.784Z,22.42
2019-01-21T01:38:49.171Z,24.77
2019-01-21T01:41:17.566Z,22.22
2019-01-21T01:43:46.006Z,22.05
2019-01-21T01:46:14.414Z,22.50
2019-01-21T01:48:42.801Z,23.32
2019-01-21T01:51:11.418Z,25.80
2019-01-21T01:53:39.818Z,26.68
2019-01-21T01:56:08.218Z,26.30
2019-01-21T01:58:36.609Z,24.18
2019-01-21T02:01:05.762Z,22.60
2019-01-21T02:03:34.528Z,25.65
2019-01-21T02:06:02.920Z,22.82
2019-01-21T02:08:31.610Z,21.60
2019-01-21T02:11:00.503Z,25.92
2019-01-21T02:13:28.888Z,22.73
2019-01-21T02:15:57.281Z,21.12
2019-01-21T02:18:26.375Z,21.30
2019-01-21T02:20:56.327Z,22.73
2019-01-21T02:23:27.781Z,23.98
2019-01-21T02:25:59.278Z,25.72
2019-01-21T02:28:39.691Z,22.17
2019-01-21T02:31:19.996Z,25.85
2019-01-21T02:33:54.068Z,26.93
2019-01-21T02:36:37.129Z,23.10
2019-01-21T02:39:17.384Z,23.92
2019-01-21T02:41:46.608Z,25.25
2019-01-21T02:44:21.004Z,22.52
2019-01-21T02:46:58.110Z,22.27
2019-01-21T02:49:52.052Z,22.45
2019-01-21T02:52:50.213Z,26.02
2019-01-21T02:55:40.855Z,25.37
2019-01-21T02:58:18.198Z,24.55
2019-01-21T03:01:01.427Z,22.20
2019-01-21T03:03:33.037Z,23.55
2019-01-21T03:06:07.293Z,22.15
2019-01-21T03:09:01.269Z,22.85
2019-01-21T03:11:53.604Z,22.73
2019-01-21T03:14:46.108Z,22.13
2019-01-21T03:17:26.338Z,26.07
2019-01-21T03:20:15.772Z,26.95
2019-01-21T03:22:56.423Z,21.10
2019-01-21T03:25:50.987Z,23.83
2019-01-21T03:28:46.321Z,21.48
2019-01-21T03:31:32.663Z,21.55
2019-01-21T03:34:28.042Z,23.90
2019-01-21T03:37:31.410Z,23.20
2019-01-21T03:40:37.775Z,21.90
2019-01-21T03:43:27.431Z,22.17
2019-01-21T03:46:07.381Z,23.10
2019-01-21T03:48:38.643Z,27.90
2019-01-21T03:51:10.082Z,26.95
2019-01-21T03:53:47.459Z,23.32
2019-01-21T03:56:18.899Z,22.13
2019-01-21T03:59:25.713Z,24.43
2019-01-21T04:02:20.922Z,22.17
2019-01-21T04:05:09.905Z,22.25
2019-01-21T04:07:43.952Z,21.48
2019-01-21T04:10:15.397Z,21.33
2019-01-21T04:13:07.544Z,22.00
2019-01-21T04:15:47.272Z,22.20
2019-01-21T04:18:38.358Z,19.35
2019-01-21T04:21:25.168Z,19.67
2019-01-21T04:24:17.684Z,19.95
2019-01-21T04:27:08.715Z,21.33
2019-01-21T04:30:12.047Z,20.50
2019-01-21T04:32:58.425Z,20.90
2019-01-21T04:35:49.192Z,19.55
2019-01-21T04:38:44.723Z,24.10
2019-01-21T04:41:19.204Z,22.77
2019-01-21T04:44:13.439Z,22.15
2019-01-21T04:46:51.245Z,21.68
2019-01-21T04:49:32.214Z,30.02
2019-01-21T04:52:12.679Z,20.70
2019-01-21T04:54:53.061Z,24.77
2019-01-21T04:57:40.935Z,22.05
2019-01-21T05:00:15.336Z,23.80
2019-01-21T05:02:50.007Z,20.97
2019-01-21T05:05:37.615Z,22.93
2019-01-21T05:08:24.411Z,22.95
2019-01-21T05:11:16.484Z,22.93
2019-01-21T05:14:04.501Z,23.32
2019-01-21T05:16:56.668Z,24.47
2019-01-21T05:19:37.088Z,19.65
2019-01-21T05:22:09.103Z,19.02
2019-01-21T05:25:07.690Z,20.88
2019-01-21T05:28:04.747Z,19.92
2019-01-21T05:30:47.999Z,21.12
2019-01-21T05:33:27.919Z,19.23
2019-01-21T05:36:11.046Z,20.40
2019-01-21T05:38:51.199Z,22.93
2019-01-21T05:41:34.457Z,20.43
2019-01-21T05:44:20.682Z,19.17
2019-01-21T05:47:17.772Z,21.00
2019-01-21T05:50:08.492Z,26.73
2019-01-21T05:52:48.845Z,22.70
2019-01-21T05:55:41.477Z,21.70
2019-01-21T05:58:18.498Z,21.27
2019-01-21T06:00:50.216Z,22.52
2019-01-21T06:03:24.170Z,23.70
2019-01-21T06:06:03.862Z,21.90
2019-01-21T06:08:51.716Z,22.17
2019-01-21T06:11:25.842Z,22.95
2019-01-21T06:14:06.087Z,22.32
2019-01-21T06:16:55.326Z,23.47
2019-01-21T06:19:53.614Z,23.83
2019-01-21T06:22:36.727Z,21.52
2019-01-21T06:25:23.227Z,31.73
2019-01-21T06:27:57.780Z,19.77
2019-01-21T06:30:34.336Z,21.57
2019-01-21T06:33:11.363Z,20.88
2019-01-21T06:36:02.571Z,21.68
2019-01-21T06:38:39.632Z,19.48
2019-01-21T06:41:13.707Z,20.70
2019-01-21T06:44:17.244Z,22.15
2019-01-21T06:47:14.277Z,21.57
2019-01-21T06:49:54.233Z,23.80
2019-01-21T06:52:31.467Z,25.32
2019-01-21T06:55:17.910Z,26.50
2019-01-21T06:58:07.079Z,20.75
2019-01-21T07:00:41.626Z,23.15
2019-01-21T07:03:13.061Z,23.65
2019-01-21T07:05:56.323Z,22.10
2019-01-21T07:08:36.393Z,21.37
2019-01-21T07:11:08.069Z,25.82
2019-01-21T07:14:04.813Z,20.72
2019-01-21T07:16:39.257Z,23.55
2019-01-21T07:19:22.750Z,22.48
2019-01-21T07:21:56.842Z,25.32
2019-01-21T07:24:39.818Z,24.65
2019-01-21T07:27:27.996Z,22.10
2019-01-21T07:30:05.592Z,22.40
2019-01-21T07:32:55.213Z,24.30
2019-01-21T07:35:50.873Z,23.87
2019-01-21T07:38:33.922Z,20.55
2019-01-21T07:41:11.104Z,21.05
2019-01-21T07:43:42.997Z,24.18
2019-01-21T07:46:17.623Z,23.38
2019-01-21T07:49:03.852Z,24.27
2019-01-21T07:51:54.713Z,22.00
2019-01-21T07:54:29.361Z,24.00
2019-01-21T07:57:33.391Z,24.77
2019-01-21T08:00:13.745Z,24.32
2019-01-21T08:03:01.537Z,24.87
2019-01-21T08:05:41.882Z,27.05
2019-01-21T08:08:28.255Z,31.00
2019-01-21T08:11:02.346Z,24.55
2019-01-21T08:13:48.740Z,29.63
2019-01-21T08:16:42.139Z,30.95
2019-01-21T08:19:16.779Z,30.40
2019-01-21T08:21:56.544Z,30.72
2019-01-21T08:25:01.506Z,36.60
2019-01-21T08:27:35.417Z,32.95
2019-01-21T08:30:16.089Z,28.85
2019-01-21T08:33:08.779Z,36.00
2019-01-21T08:35:55.366Z,34.67
2019-01-21T08:38:35.869Z,31.75
2019-01-21T08:41:13.645Z,33.42
2019-01-21T08:43:45.092Z,33.58
2019-01-21T08:46:27.908Z,38.23
2019-01-21T08:49:08.174Z,35.78
2019-01-21T08:51:58.851Z,34.25
2019-01-21T08:54:42.276Z,40.17
2019-01-21T08:57:31.896Z,31.75
2019-01-21T09:00:06.153Z,31.90
2019-01-21T09:02:40.629Z,37.93
2019-01-21T09:05:17.215Z,36.00
2019-01-21T09:07:57.362Z,36.10
2019-01-21T09:10:47.136Z,34.20
2019-01-21T09:13:33.629Z,34.35
2019-01-21T09:16:07.890Z,35.70
2019-01-21T09:19:00.571Z,32.55
2019-01-21T09:21:47.083Z,38.73
2019-01-21T09:24:36.928Z,34.53
2019-01-21T09:27:17.409Z,36.13
2019-01-21T09:30:07.176Z,37.00
2019-01-21T09:32:44.837Z,34.58
2019-01-21T09:35:18.957Z,34.45
2019-01-21T09:38:11.900Z,34.88
2019-01-21T09:40:46.042Z,28.73
2019-01-21T09:43:20.742Z,32.00
2019-01-21T09:45:58.147Z,31.10
2019-01-21T09:48:25.376Z,33.60
2019-01-21T09:50:56.037Z,32.63
2019-01-21T09:53:24.867Z,33.10
2019-01-21T09:55:55.129Z,34.23
2019-01-21T09:58:24.567Z,33.02
2019-01-21T10:00:53.034Z,32.60
2019-01-21T10:03:23.256Z,30.50
2019-01-21T10:05:54.940Z,31.90
2019-01-21T10:08:32.124Z,31.00
2019-01-21T10:11:29.193Z,32.73
2019-01-21T10:14:18.564Z,36.60
2019-01-21T10:17:10.985Z,33.50
2019-01-21T10:19:59.286Z,32.80
2019-01-21T10:22:39.717Z,34.13
2019-01-21T10:25:23.274Z,33.70
2019-01-21T10:27:57.808Z,33.70
2019-01-21T10:30:35.407Z,32.13
2019-01-21T10:33:19.050Z,36.93
2019-01-21T10:36:10.152Z,33.93
2019-01-21T10:38:47.648Z,31.73
2019-01-21T10:41:25.138Z,36.17
2019-01-21T10:44:05.808Z,31.00
2019-01-21T10:46:43.403Z,32.23
2019-01-21T10:49:30.212Z,33.00
2019-01-21T10:52:13.741Z,31.80
2019-01-21T10:54:45.171Z,31.87
2019-01-21T10:57:22.764Z,29.10
2019-01-21T11:00:11.833Z,33.23
2019-01-21T11:03:00.204Z,31.13
2019-01-21T11:05:37.247Z,35.40
2019-01-21T11:08:14.271Z,32.67
2019-01-21T11:11:00.548Z,33.73
2019-01-21T11:13:48.614Z,30.80
2019-01-21T11:16:35.006Z,28.93
2019-01-21T11:19:06.450Z,31.67
2019-01-21T11:21:37.894Z,32.93
2019-01-21T11:24:15.812Z,31.53
2019-01-21T11:27:07.159Z,28.57
2019-01-21T11:29:53.751Z,32.23
2019-01-21T11:32:41.523Z,32.20
2019-01-21T11:35:35.754Z,30.70
2019-01-21T11:38:16.321Z,30.93
2019-01-21T11:40:50.741Z,30.60
2019-01-21T11:43:33.977Z,29.40
2019-01-21T11:46:37.673Z,30.10
2019-01-21T11:49:31.635Z,30.70
2019-01-21T11:52:20.765Z,32.07
2019-01-21T11:54:58.071Z,31.17
2019-01-21T11:57:50.248Z,31.43
2019-01-21T12:00:21.709Z,27.03
2019-01-21T12:03:23.284Z,32.73
2019-01-21T12:05:50.975Z,32.97
2019-01-21T12:08:37.155Z,33.57
2019-01-21T12:11:29.231Z,33.73
2019-01-21T12:14:06.601Z,31.80
2019-01-21T12:17:11.449Z,31.57
2019-01-21T12:20:02.885Z,31.47
2019-01-21T12:22:59.683Z,29.40
2019-01-21T12:25:39.408Z,29.57
2019-01-21T12:28:39.732Z,34.30
2019-01-21T12:31:16.973Z,31.17
2019-01-21T12:34:03.400Z,29.17
2019-01-21T12:36:34.845Z,32.63
2019-01-21T12:39:12.437Z,32.63
2019-01-21T12:41:47.585Z,29.10
2019-01-21T12:44:25.177Z,33.67
2019-01-21T12:46:59.696Z,31.30
2019-01-21T12:49:40.043Z,32.10
2019-01-21T12:52:24.132Z,38.13
2019-01-21T12:54:56.629Z,32.80
2019-01-21T12:57:39.924Z,34.57
2019-01-21T13:00:20.396Z,33.23
2019-01-21T13:03:09.825Z,31.20
2019-01-21T13:05:57.792Z,34.87
2019-01-21T13:08:31.739Z,31.13
2019-01-21T13:11:03.426Z,28.53
2019-01-21T13:13:53.238Z,28.10
2019-01-21T13:16:27.857Z,27.97
2019-01-21T13:19:25.161Z,30.40
2019-01-21T13:22:03.620Z,28.83
2019-01-21T13:24:47.463Z,32.83
2019-01-21T13:27:35.591Z,27.97
2019-01-21T13:30:15.787Z,33.10
2019-01-21T13:32:50.040Z,32.53
2019-01-21T13:35:27.344Z,32.87
2019-01-21T13:38:15.328Z,27.97
2019-01-21T13:40:52.412Z,28.30
2019-01-21T13:43:38.814Z,31.97
2019-01-21T13:46:15.831Z,31.83
2019-01-21T13:48:47.301Z,30.00
2019-01-21T13:51:30.675Z,26.70
2019-01-21T13:54:11.990Z,30.50
2019-01-21T13:56:52.296Z,30.43
2019-01-21T13:59:23.964Z,29.00
2019-01-21T14:01:56.639Z,27.67
2019-01-21T14:04:36.955Z,27.27
2019-01-21T14:07:16.777Z,27.73
2019-01-21T14:10:04.490Z,27.53
2019-01-21T14:12:42.103Z,27.73
2019-01-21T14:15:34.429Z,29.77
2019-01-21T14:18:25.199Z,31.57
2019-01-21T14:20:59.642Z,32.17
2019-01-21T14:23:42.828Z,30.13
2019-01-21T14:26:35.530Z,30.20
2019-01-21T14:29:21.800Z,35.03
2019-01-21T14:32:13.586Z,31.50
2019-01-21T14:34:45.017Z,26.10
2019-01-21T14:37:32.637Z,29.40
2019-01-21T14:40:06.641Z,30.00
2019-01-21T14:42:49.737Z,29.30
2019-01-21T14:45:30.038Z,33.70
2019-01-21T14:48:32.244Z,29.70
2019-01-21T14:51:15.608Z,33.80
2019-01-21T14:54:08.271Z,31.90
2019-01-21T14:57:10.253Z,28.80
2019-01-21T14:59:44.645Z,29.83
2019-01-21T15:02:25.069Z,35.20
2019-01-21T15:05:14.493Z,31.27
2019-01-21T15:07:46.153Z,29.90
2019-01-21T15:10:33.602Z,33.27
2019-01-21T15:13:14.051Z,38.30
2019-01-21T15:15:57.102Z,32.50
2019-01-21T15:18:28.547Z,29.80
2019-01-21T15:21:12.144Z,34.10
2019-01-21T15:23:55.429Z,33.63
2019-01-21T15:26:34.838Z,35.03
2019-01-21T15:29:22.175Z,31.23
2019-01-21T15:32:18.308Z,42.53
2019-01-21T15:34:55.769Z,34.63
2019-01-21T15:37:37.065Z,34.47
2019-01-21T15:40:08.629Z,35.57
2019-01-21T15:42:42.700Z,35.23
2019-01-21T15:45:32.002Z,35.27
2019-01-21T15:48:20.297Z,37.33
2019-01-21T15:50:55.749Z,36.10
2019-01-21T15:53:33.073Z,33.83
2019-01-21T15:56:19.600Z,35.50
2019-01-21T15:58:57.142Z,38.80
2019-01-21T16:01:43.360Z,35.50
2019-01-21T16:04:14.811Z,37.03
2019-01-21T16:06:52.702Z,38.27
2019-01-21T16:09:36.366Z,40.80
2019-01-21T16:12:11.239Z,37.43
2019-01-21T16:14:45.575Z,36.80
2019-01-21T16:17:19.711Z,44.40
2019-01-21T16:19:48.103Z,42.10
2019-01-21T16:22:25.565Z,50.73
2019-01-21T16:24:59.784Z,44.80
2019-01-21T16:27:47.658Z,44.87
2019-01-21T16:30:34.326Z,42.83
2019-01-21T16:33:20.831Z,41.03
2019-01-21T16:35:57.816Z,44.58
2019-01-21T16:38:26.213Z,46.92
2019-01-21T16:41:18.838Z,45.77
2019-01-21T16:43:47.308Z,42.43
2019-01-21T16:46:16.038Z,43.25
2019-01-21T16:48:44.434Z,41.08
2019-01-21T16:51:19.999Z,46.87
2019-01-21T16:53:43.386Z,43.58
2019-01-21T16:56:11.793Z,41.05
2019-01-21T16:58:40.291Z,43.73
2019-01-21T17:01:08.767Z,36.73
2019-01-21T17:03:37.196Z,43.70
2019-01-21T17:06:05.661Z,36.23
2019-01-21T17:08:34.065Z,35.85
2019-01-21T17:11:02.476Z,36.03
2019-01-21T17:13:31.076Z,40.93
2019-01-21T17:15:59.468Z,40.93
2019-01-21T17:18:27.863Z,42.10
2019-01-21T17:20:56.516Z,41.20
2019-01-21T17:23:24.903Z,40.20
2019-01-21T17:25:53.528Z,42.47
2019-01-21T17:28:22.029Z,43.23
2019-01-21T17:30:50.415Z,38.10
2019-01-21T17:33:18.917Z,37.00
2019-01-21T17:35:47.323Z,38.20
2019-01-21T17:38:15.713Z,42.45
2019-01-21T17:40:44.187Z,44.15
2019-01-21T17:43:12.602Z,39.23
2019-01-21T17:45:41.002Z,44.33
2019-01-21T17:48:09.440Z,37.95
2019-01-21T17:50:39.438Z,43.25
2019-01-21T17:53:08.074Z,42.70
2019-01-21T17:55:36.600Z,35.00
2019-01-21T17:58:05.365Z,41.73
2019-01-21T18:00:34.271Z,40.23
2019-01-21T18:03:02.902Z,38.55
2019-01-21T18:05:32.856Z,42.08
2019-01-21T18:08:01.406Z,38.85
2019-01-21T18:10:29.786Z,39.05
2019-01-21T18:12:58.191Z,37.98
2019-01-21T18:15:26.605Z,38.55
2019-01-21T18:17:55.009Z,44.10
2019-01-21T18:20:23.754Z,42.33
2019-01-21T18:22:52.150Z,45.98
2019-01-21T18:25:20.619Z,39.53
2019-01-21T18:27:49.030Z,33.85
2019-01-21T18:30:22.585Z,40.52
2019-01-21T18:32:50.991Z,43.65
2019-01-21T18:35:19.469Z,41.95
2019-01-21T18:37:47.862Z,45.67
2019-01-21T18:40:18.801Z,46.77
2019-01-21T18:42:47.629Z,37.35
2019-01-21T18:45:19.434Z,38.60
2019-01-21T18:47:48.857Z,43.35
2019-01-21T18:50:17.409Z,44.38
2019-01-21T18:52:46.112Z,43.65
2019-01-21T18:55:14.595Z,43.60
2019-01-21T18:57:43.060Z,47.40
2019-01-21T19:00:17.524Z,41.02
2019-01-21T19:02:45.935Z,41.83
2019-01-21T19:05:15.332Z,39.18
2019-01-21T19:07:43.776Z,41.37
2019-01-21T19:10:14.860Z,42.67
2019-01-21T19:12:43.540Z,46.70
2019-01-21T19:15:17.524Z,41.58
2019-01-21T19:17:45.914Z,40.00
2019-01-21T19:20:16.372Z,40.48
2019-01-21T19:22:45.145Z,45.15
2019-01-21T19:25:17.822Z,47.80
2019-01-21T19:27:48.488Z,41.48
2019-01-21T19:30:22.728Z,50.88
2019-01-21T19:32:51.422Z,64.60
2019-01-21T19:35:23.025Z,60.40
2019-01-21T19:37:51.512Z,51.58
2019-01-21T19:40:22.029Z,54.18
2019-01-21T19:42:50.551Z,48.60
2019-01-21T19:45:19.749Z,44.45
2019-01-21T19:47:48.241Z,43.38
2019-01-21T19:50:21.883Z,52.73
2019-01-21T19:52:50.283Z,45.95
2019-01-21T19:55:37.164Z,48.15
2019-01-21T19:58:07.025Z,46.95
2019-01-21T20:00:35.702Z,45.05
2019-01-21T20:03:05.318Z,45.03
2019-01-21T20:05:33.874Z,43.63
2019-01-21T20:08:02.305Z,42.60
2019-01-21T20:10:31.132Z,45.38
2019-01-21T20:12:59.669Z,43.85
2019-01-21T20:15:28.370Z,42.50
2019-01-21T20:17:56.800Z,47.48
2019-01-21T20:20:34.103Z,43.75
2019-01-21T20:23:03.303Z,42.65
2019-01-21T20:25:31.699Z,43.75
2019-01-21T20:28:00.159Z,48.75
2019-01-21T20:30:29.258Z,40.52
2019-01-21T20:32:57.835Z,41.42
2019-01-21T20:35:26.419Z,50.70
2019-01-21T20:37:54.926Z,41.65
2019-01-21T20:40:28.310Z,48.65
2019-01-21T20:42:56.857Z,44.15
2019-01-21T20:45:27.118Z,42.73
2019-01-21T20:47:55.597Z,46.95
2019-01-21T20:50:26.666Z,48.65
2019-01-21T20:52:55.081Z,49.75
2019-01-21T20:55:23.725Z,50.55
2019-01-21T20:57:52.378Z,50.17
2019-01-21T21:00:23.541Z,48.50
2019-01-21T21:02:53.553Z,50.28
2019-01-21T21:05:22.162Z,57.33
2019-01-21T21:07:50.705Z,48.58
2019-01-21T21:10:19.842Z,53.15
2019-01-21T21:12:48.389Z,51.85
2019-01-21T21:15:26.130Z,49.60
2019-01-21T21:17:54.918Z,52.17
2019-01-21T21:20:23.786Z,52.90
2019-01-21T21:22:52.075Z,52.90
2019-01-21T21:25:20.809Z,52.85
2019-01-21T21:27:49.218Z,47.62
2019-01-21T21:30:23.537Z,50.23
2019-01-21T21:32:52.305Z,50.73
2019-01-21T21:35:21.495Z,51.90
2019-01-21T21:37:49.907Z,50.95
2019-01-21T21:40:20.395Z,45.15
2019-01-21T21:42:49.103Z,48.55
2019-01-21T21:45:19.551Z,47.62
2019-01-21T21:47:48.008Z,52.65
2019-01-21T21:50:19.378Z,47.93
2019-01-21T21:52:47.964Z,52.05
2019-01-21T21:55:16.521Z,52.17
2019-01-21T21:57:45.211Z,53.87
2019-01-21T22:00:21.988Z,51.10
2019-01-21T22:02:50.554Z,52.35
2019-01-21T22:05:19.541Z,52.08
2019-01-21T22:07:48.249Z,54.08
2019-01-21T22:10:22.444Z,48.85
2019-01-21T22:12:51.119Z,49.53
2019-01-21T22:15:21.554Z,42.40
2019-01-21T22:17:50.267Z,51.60
2019-01-21T22:20:21.005Z,49.98
2019-01-21T22:22:49.686Z,50.00
2019-01-21T22:25:18.628Z,47.38
2019-01-21T22:27:47.122Z,45.73
2019-01-21T22:30:18.519Z,46.53
2019-01-21T22:32:46.933Z,50.52
2019-01-21T22:35:15.499Z,50.15
2019-01-21T22:37:44.373Z,53.08
2019-01-21T22:40:15.402Z,48.05
2019-01-21T22:42:44.101Z,45.80
2019-01-21T22:45:14.228Z,46.80
2019-01-21T22:47:42.664Z,45.83
2019-01-21T22:50:14.083Z,48.87
2019-01-21T22:52:42.771Z,45.43
2019-01-21T22:55:15.715Z,46.37
2019-01-21T22:57:44.113Z,49.50
2019-01-21T23:00:37.970Z,54.25
2019-01-21T23:03:06.666Z,48.25
2019-01-21T23:05:35.064Z,47.45
2019-01-21T23:08:04.033Z,46.53
2019-01-21T23:10:32.529Z,46.85
2019-01-21T23:13:01.011Z,42.30
2019-01-21T23:15:29.469Z,48.80
2019-01-21T23:17:58.167Z,46.33
2019-01-21T23:20:26.560Z,52.00
2019-01-21T23:22:55.233Z,47.78
2019-01-21T23:25:23.869Z,46.33
2019-01-21T23:27:52.692Z,43.45
2019-01-21T23:30:23.538Z,45.70
2019-01-21T23:32:51.925Z,48.08
2019-01-21T23:35:20.703Z,44.67
2019-01-21T23:37:49.519Z,48.78
2019-01-21T23:40:17.912Z,45.73
2019-01-21T23:42:46.374Z,43.87
2019-01-21T23:45:15.238Z,47.48
2019-01-21T23:47:43.924Z,54.25
2019-01-21T23:50:14.446Z,43.55
2019-01-21T23:52:43.115Z,42.25
2019-01-21T23:55:13.361Z,43.68
2019-01-21T23:57:41.742Z,50.67
